KAMA/AMA METAR and TAF weather

Enter ICAO airport designator
Station Type Date Time Source
KAMA METAR 2018/01/22 11:53 UTC NOAA

KAMA 221153Z 29018KT 10SM CLR M02/M09 A2997 RMK AO2 SLP152 T10171089 10000 21028 53010


Station Type Date Time Source
KAMA Decoded METAR 2018/01/22 11:53 UTC NOAA

AMARILLO INTERNATIONAL AIRPORT, TX, United States (KAMA) 35-13N 101-43W 1093M
Jan 22, 2018 - 06:53 AM EST / 2018.01.22 1153 UTC
Wind: from the WNW (290 degrees) at 21 MPH (18 KT):0
Visibility: 10 mile(s):0
Sky conditions: clear
Temperature: 28.9 F (-1.7 C)
Windchill: 15 F (-9 C):1
Dew Point: 16.0 F (-8.9 C)
Relative Humidity: 57%
Pressure (altimeter): 29.97 in. Hg (1014 hPa)
Pressure tendency: 0.03 inches (1.0 hPa) higher than three hours ago
ob: KAMA 221153Z 29018KT 10SM CLR M02/M09 A2997 RMK AO2 SLP152 T10171089 10000 21028 53010
cycle: 12

Station Type Date Time Source
KAMA TAF 2018/01/22 12:36 UTC NOAA

TAF KAMA 221133Z 2212/2312 32015G25KT P6SM SCT200
FM222300 30006KT P6SM FEW300
FM230300 25006KT P6SM SKC


Example: see airport list